Torrens — MHBK6 — position and weather

sailwx.info

Track history (hours):
 
Tides and Currents Weather Stations Pressure Air Temp Water Temp Dewpoint Dewpoint Depression Visibility Wind Speed Wind Dir Waves Ship Positions

Torrens

Last reported at 2018-Feb-19 03:29 UTC. Time now 2018-Feb-21 22:58 UTC.
Position S 32°50' W 072°00'.

Length 200 m; draft 10 m.

Type: Cargo ship. MMSI: 232248000.

Date/timePositionNaut miles runAvg speedWind from/ knotsBaromVisibWave heightAir tempDewpointWater temp
2018-Feb-19 03:29S 32°50' W 072°00'  
2018-Feb-10 18:31N 09°11' W 079°52'0 8.7
2018-Feb-10 18:30N 09°11' W 079°52'4 8.7
2018-Feb-10 18:00N 09°13' W 079°55'2 4.1
2018-Feb-10 17:30N 09°15' W 079°55'0 0.1
2018-Feb-10 17:00N 09°15' W 079°55'0 0.0
2018-Feb-10 16:30N 09°15' W 079°55'0 0.0
2018-Feb-10 16:00N 09°15' W 079°55'0 0.0
2018-Feb-10 15:30N 09°15' W 079°55'0 0.0
2018-Feb-10 15:00N 09°15' W 079°55'0 0.0
2018-Feb-10 14:30N 09°15' W 079°55'0 0.1
2018-Feb-10 14:00N 09°15' W 079°55'0 0.0
2018-Feb-10 13:30N 09°15' W 079°55'0 0.0
2018-Feb-10 13:00N 09°15' W 079°55'0 0.0
2018-Feb-10 12:30N 09°15' W 079°55'0 0.0
2018-Feb-10 12:01N 09°15' W 079°55'0 0.0
2018-Feb-10 11:30N 09°15' W 079°55'0 0.0
2018-Feb-10 11:00N 09°15' W 079°55'0 0.0
2018-Feb-10 10:30N 09°15' W 079°55'0 0.0
2018-Feb-10 10:00N 09°15' W 079°55'0 0.1
2018-Feb-10 09:29N 09°15' W 079°55'1 1.9
2018-Feb-10 09:00N 09°16' W 079°55'0 0.4
2018-Feb-10 08:30N 09°16' W 079°55'0 0.7
2018-Feb-10 08:00N 09°17' W 079°55'1 2.0
2018-Feb-10 07:30N 09°18' W 079°55'4 7.8
2018-Feb-10 07:00N 09°22' W 079°55'3 5.5
2018-Feb-10 06:30N 09°24' W 079°55'2 4.5
2018-Feb-10 06:00N 09°27' W 079°55'4 8.0
2018-Feb-10 05:30N 09°28' W 079°51'0 0.2
2018-Feb-10 04:56N 09°27' W 079°51'0 0.0
2018-Feb-10 04:30N 09°27' W 079°51'0 0.0
2018-Feb-10 03:58N 09°27' W 079°51'0 0.1
2018-Feb-10 03:28N 09°27' W 079°51'0 0.0
2018-Feb-10 02:58N 09°27' W 079°51'0 0.1
2018-Feb-10 02:28N 09°27' W 079°51'0 0.0
2018-Feb-10 01:58N 09°27' W 079°51'0 0.1
2018-Feb-10 01:28N 09°27' W 079°51'0 0.0
2018-Feb-10 00:58N 09°27' W 079°51'0 0.1
2018-Feb-10 00:25N 09°27' W 079°51'0 0.0
2018-Feb-09 23:58N 09°27' W 079°51'0 0.1
2018-Feb-09 23:28N 09°27' W 079°51'0 0.0
2018-Feb-09 22:58N 09°27' W 079°51'0 0.4
2018-Feb-09 22:40N 09°28' W 079°51'0 1.1
2018-Feb-09 22:30N 09°28' W 079°51'2 4.7
2018-Feb-09 22:00N 09°26' W 079°53'4 7.8
2018-Feb-09 21:31N 09°22' W 079°54'1 0.0
2018-Feb-09 04:00N 09°22' W 079°53'  
Track history (hours):
 
Tides and Currents Weather Stations Pressure Air Temp Water Temp Dewpoint Dewpoint Depression Visibility Wind Speed Wind Dir Waves Ship Positions

Torrens

Last reported at 2018-Feb-19 03:29 UTC. Time now 2018-Feb-21 22:58 UTC.
Position S 32°50' W 072°00'.

Length 200 m; draft 10 m.

Type: Cargo ship. MMSI: 232248000.

Date/timePositionNaut miles runAvg speedWind from/ knotsBaromVisibWave heightAir tempDewpointWater temp
2018-Feb-19 03:29S 32°50' W 072°00'  
2018-Feb-10 18:31N 09°11' W 079°52'0 8.7
2018-Feb-10 18:30N 09°11' W 079°52'4 8.7
2018-Feb-10 18:00N 09°13' W 079°55'2 4.1
2018-Feb-10 17:30N 09°15' W 079°55'0 0.1
2018-Feb-10 17:00N 09°15' W 079°55'0 0.0
2018-Feb-10 16:30N 09°15' W 079°55'0 0.0
2018-Feb-10 16:00N 09°15' W 079°55'0 0.0
2018-Feb-10 15:30N 09°15' W 079°55'0 0.0
2018-Feb-10 15:00N 09°15' W 079°55'0 0.0
2018-Feb-10 14:30N 09°15' W 079°55'0 0.1
2018-Feb-10 14:00N 09°15' W 079°55'0 0.0
2018-Feb-10 13:30N 09°15' W 079°55'0 0.0
2018-Feb-10 13:00N 09°15' W 079°55'0 0.0
2018-Feb-10 12:30N 09°15' W 079°55'0 0.0
2018-Feb-10 12:01N 09°15' W 079°55'0 0.0
2018-Feb-10 11:30N 09°15' W 079°55'0 0.0
2018-Feb-10 11:00N 09°15' W 079°55'0 0.0
2018-Feb-10 10:30N 09°15' W 079°55'0 0.0
2018-Feb-10 10:00N 09°15' W 079°55'0 0.1
2018-Feb-10 09:29N 09°15' W 079°55'1 1.9
2018-Feb-10 09:00N 09°16' W 079°55'0 0.4
2018-Feb-10 08:30N 09°16' W 079°55'0 0.7
2018-Feb-10 08:00N 09°17' W 079°55'1 2.0
2018-Feb-10 07:30N 09°18' W 079°55'4 7.8
2018-Feb-10 07:00N 09°22' W 079°55'3 5.5
2018-Feb-10 06:30N 09°24' W 079°55'2 4.5
2018-Feb-10 06:00N 09°27' W 079°55'4 8.0
2018-Feb-10 05:30N 09°28' W 079°51'0 0.2
2018-Feb-10 04:56N 09°27' W 079°51'0 0.0
2018-Feb-10 04:30N 09°27' W 079°51'0 0.0
2018-Feb-10 03:58N 09°27' W 079°51'0 0.1
2018-Feb-10 03:28N 09°27' W 079°51'0 0.0
2018-Feb-10 02:58N 09°27' W 079°51'0 0.1
2018-Feb-10 02:28N 09°27' W 079°51'0 0.0
2018-Feb-10 01:58N 09°27' W 079°51'0 0.1
2018-Feb-10 01:28N 09°27' W 079°51'0 0.0
2018-Feb-10 00:58N 09°27' W 079°51'0 0.1
2018-Feb-10 00:25N 09°27' W 079°51'0 0.0
2018-Feb-09 23:58N 09°27' W 079°51'0 0.1
2018-Feb-09 23:28N 09°27' W 079°51'0 0.0
2018-Feb-09 22:58N 09°27' W 079°51'0 0.4
2018-Feb-09 22:40N 09°28' W 079°51'0 1.1
2018-Feb-09 22:30N 09°28' W 079°51'2 4.7
2018-Feb-09 22:00N 09°26' W 079°53'4 7.8
2018-Feb-09 21:31N 09°22' W 079°54'1 0.0
2018-Feb-09 04:00N 09°22' W 079°53'  

Dump ship's entire track history